Time;durP1;ratioP1;P1;durP2;ratioP2;P2;SDS_P1;SDS_P2;PMS_P1;PMS_P2;Temp;Humidity;BMP_temperature;BMP_pressure;BME280_temperature;BME280_humidity;BME280_pressure;Samples;Min_cycle;Max_cycle;Signal;HPM_P1;HPM_P2
2022/09/23 00:00:37;;;;;;;7.72;2.20;;;18.60;48.60;;;;;;6164382;28;20050;-80
2022/09/23 00:03:41;;;;;;;3.35;2.05;;;18.60;48.80;;;;;;6164083;28;20504;-80
2022/09/23 00:06:42;;;;;;;3.15;1.67;;;18.60;48.90;;;;;;6173220;28;20060;-80
2022/09/23 00:09:43;;;;;;;3.70;1.90;;;18.60;49.10;;;;;;6170792;28;20461;-79
2022/09/23 00:12:44;;;;;;;16.38;2.65;;;18.60;49.40;;;;;;6151446;28;20130;-80
2022/09/23 00:15:45;;;;;;;7.13;1.83;;;18.50;49.90;;;;;;6150297;28;20050;-80
2022/09/23 00:18:49;;;;;;;5.43;1.83;;;18.50;50.30;;;;;;6155266;28;20066;-80
2022/09/23 00:21:50;;;;;;;4.40;1.95;;;18.40;50.50;;;;;;6173019;28;20046;-80
2022/09/23 00:24:51;;;;;;;8.80;2.33;;;18.40;50.80;;;;;;6168197;28;20043;-80
2022/09/23 00:27:53;;;;;;;4.35;2.22;;;18.40;51.20;;;;;;6151144;28;20090;-79
2022/09/23 00:30:54;;;;;;;3.90;2.25;;;18.30;51.50;;;;;;6159236;28;20042;-80
2022/09/23 00:34:00;;;;;;;4.03;2.05;;;18.20;51.70;;;;;;6149828;28;20414;-80
2022/09/23 00:37:01;;;;;;;6.18;2.45;;;18.20;51.80;;;;;;6144041;28;20035;-80
2022/09/23 00:40:03;;;;;;;3.47;1.77;;;18.20;52.00;;;;;;6150946;28;20456;-80
2022/09/23 00:43:05;;;;;;;2.70;1.90;;;18.10;52.20;;;;;;6150292;28;20035;-80
2022/09/23 00:46:09;;;;;;;6.55;2.20;;;18.10;52.40;;;;;;6149493;28;20050;-80
2022/09/23 00:49:29;;;;;;;4.15;2.33;;;18.10;52.50;;;;;;6150814;28;20118;-80
2022/09/23 00:52:31;;;;;;;5.10;2.17;;;18.10;52.70;;;;;;6148849;28;20103;-80
2022/09/23 00:55:38;;;;;;;3.58;2.15;;;18.10;52.80;;;;;;6150272;28;20062;-80
2022/09/23 00:58:41;;;;;;;5.47;2.05;;;18.00;52.90;;;;;;6149358;28;20038;-80
2022/09/23 01:01:43;;;;;;;5.38;2.20;;;18.00;52.80;;;;;;6149629;28;20046;-79
2022/09/23 01:04:44;;;;;;;3.70;2.10;;;18.00;52.90;;;;;;6148592;28;20039;-80
2022/09/23 01:07:46;;;;;;;4.80;2.10;;;18.00;53.00;;;;;;6164819;28;20031;-79
2022/09/23 01:10:58;;;;;;;9.52;2.50;;;18.00;53.10;;;;;;6153771;28;20105;-79
2022/09/23 01:14:17;;;;;;;6.30;2.25;;;17.90;53.00;;;;;;6156885;28;20039;-80
2022/09/23 01:17:38;;;;;;;7.20;2.55;;;18.00;53.00;;;;;;6149252;28;20090;-79
2022/09/23 01:21:05;;;;;;;11.60;2.53;;;17.90;53.00;;;;;;6148257;28;20046;-79
2022/09/23 01:24:27;;;;;;;3.92;1.73;;;17.90;53.10;;;;;;6148097;28;20038;-79
2022/09/23 01:27:52;;;;;;;5.43;2.28;;;17.90;53.10;;;;;;6101643;29;20036;-79
2022/09/23 01:31:01;;;;;;;3.55;1.75;;;17.90;53.00;;;;;;6103579;29;20032;-79
2022/09/23 01:34:25;;;;;;;7.40;1.83;;;17.90;52.90;;;;;;6105117;28;20399;-80
2022/09/23 01:37:33;;;;;;;3.90;2.20;;;17.90;52.80;;;;;;6099807;29;20051;-80
2022/09/23 01:40:41;;;;;;;5.50;1.98;;;17.80;52.70;;;;;;6106490;29;20054;-80
2022/09/23 01:43:47;;;;;;;5.97;2.03;;;17.80;52.70;;;;;;6088708;29;20032;-80
2022/09/23 01:47:13;;;;;;;6.75;1.75;;;17.80;52.70;;;;;;6066475;29;20036;-79
2022/09/23 01:54:08;;;;;;;2.47;1.88;;;17.80;52.50;;;;;;6097330;29;20071;-80
2022/09/23 01:57:17;;;;;;;3.05;1.65;;;17.80;52.40;;;;;;6084652;29;20040;-79
2022/09/23 02:00:21;;;;;;;3.13;1.50;;;17.70;52.20;;;;;;6083034;29;20040;-79
2022/09/23 02:03:46;;;;;;;3.63;1.67;;;17.70;52.00;;;;;;6090101;28;20757;-79
2022/09/23 02:06:57;;;;;;;3.40;1.42;;;17.70;51.90;;;;;;6080304;29;20033;-80
2022/09/23 02:10:06;;;;;;;3.13;1.35;;;17.70;51.80;;;;;;6080943;29;20087;-80
2022/09/23 02:13:23;;;;;;;4.20;2.03;;;17.70;51.80;;;;;;6078401;29;20036;-80
2022/09/23 02:16:38;;;;;;;3.15;1.60;;;17.70;51.80;;;;;;6100292;29;20116;-81
2022/09/23 02:19:49;;;;;;;2.72;1.55;;;17.60;51.70;;;;;;6111406;29;20055;-79
2022/09/23 02:23:02;;;;;;;8.43;2.47;;;17.60;51.70;;;;;;6124807;29;20036;-81
2022/09/23 02:26:25;;;;;;;6.47;1.60;;;17.50;51.80;;;;;;6107158;29;20071;-80
2022/09/23 02:29:55;;;;;;;6.13;1.70;;;17.50;51.80;;;;;;6106884;29;20077;-79
2022/09/23 02:33:07;;;;;;;9.43;1.67;;;17.50;51.90;;;;;;6094896;29;20036;-80
2022/09/23 02:36:19;;;;;;;4.22;1.65;;;17.40;51.90;;;;;;6070320;29;20047;-80
2022/09/23 02:39:25;;;;;;;3.20;1.70;;;17.50;52.00;;;;;;6069763;29;20048;-80
2022/09/23 02:42:51;;;;;;;4.47;2.00;;;17.40;52.00;;;;;;6107806;28;20039;-79
2022/09/23 02:45:53;;;;;;;10.82;2.35;;;17.40;52.20;;;;;;6164245;28;20035;-80
2022/09/23 02:48:59;;;;;;;2.50;1.50;;;17.40;52.20;;;;;;6149488;28;20562;-79
2022/09/23 02:52:03;;;;;;;4.20;1.95;;;17.40;52.50;;;;;;6151161;28;20107;-80
2022/09/23 02:55:10;;;;;;;11.52;2.35;;;17.40;52.70;;;;;;6148963;28;20062;-79
2022/09/23 02:58:13;;;;;;;5.25;2.33;;;17.40;52.90;;;;;;6136479;28;20054;-80
2022/09/23 03:01:33;;;;;;;6.78;2.13;;;17.40;53.10;;;;;;6146278;28;20058;-79
2022/09/23 03:05:03;;;;;;;3.92;2.20;;;17.40;53.30;;;;;;6150841;28;20417;-79
2022/09/23 03:08:21;;;;;;;4.35;2.13;;;17.40;53.60;;;;;;6147328;28;20492;-79
2022/09/23 03:11:23;;;;;;;5.03;2.38;;;17.40;53.70;;;;;;6149871;28;20473;-80
2022/09/23 03:14:54;;;;;;;7.25;2.70;;;17.30;53.80;;;;;;6160792;28;20168;-79
2022/09/23 03:18:19;;;;;;;8.38;2.55;;;17.30;54.00;;;;;;6148160;28;20492;-79
2022/09/23 03:21:33;;;;;;;4.88;2.40;;;17.30;54.30;;;;;;6141350;28;20046;-80
2022/09/23 03:24:36;;;;;;;3.95;1.80;;;17.20;54.20;;;;;;6152808;28;20031;-80
2022/09/23 03:27:41;;;;;;;3.45;1.90;;;17.20;54.50;;;;;;6172942;28;20031;-80
2022/09/23 03:30:42;;;;;;;2.92;1.90;;;17.20;54.60;;;;;;6167872;28;20070;-80
2022/09/23 03:33:51;;;;;;;3.35;1.63;;;17.10;54.70;;;;;;6152734;28;20050;-79
2022/09/23 03:37:09;;;;;;;8.82;2.00;;;17.00;54.80;;;;;;6146213;28;20027;-79
2022/09/23 03:40:10;;;;;;;5.45;2.15;;;17.00;55.10;;;;;;6140275;28;20039;-81
2022/09/23 03:43:12;;;;;;;12.88;2.25;;;16.90;55.20;;;;;;6163246;28;20049;-79
2022/09/23 03:46:17;;;;;;;2.53;1.70;;;16.80;55.40;;;;;;6150643;28;20480;-79
2022/09/23 03:49:26;;;;;;;4.40;2.22;;;16.80;55.60;;;;;;6123750;28;20408;-79
2022/09/23 03:52:28;;;;;;;4.57;1.40;;;16.70;55.60;;;;;;6147974;28;20035;-80
2022/09/23 03:55:30;;;;;;;3.63;1.80;;;16.70;55.60;;;;;;6148011;28;20385;-80
2022/09/23 03:58:32;;;;;;;3.60;2.15;;;16.60;55.70;;;;;;6150295;28;20039;-80
2022/09/23 04:01:33;;;;;;;5.93;2.05;;;16.60;55.80;;;;;;6141849;28;20042;-79
2022/09/23 04:04:39;;;;;;;3.50;1.75;;;16.50;56.20;;;;;;6150418;28;20031;-80
2022/09/23 04:07:40;;;;;;;3.47;2.05;;;16.50;56.50;;;;;;6154979;28;20047;-80
2022/09/23 04:10:41;;;;;;;8.60;2.58;;;16.40;56.60;;;;;;6148837;28;20053;-80
2022/09/23 04:13:42;;;;;;;5.18;2.00;;;16.40;56.70;;;;;;6154972;28;20066;-80
2022/09/23 04:16:43;;;;;;;5.40;2.58;;;16.40;56.80;;;;;;6128175;28;20039;-80
2022/09/23 04:19:44;;;;;;;7.68;2.15;;;16.40;56.80;;;;;;6150955;28;20035;-80
2022/09/23 04:22:45;;;;;;;3.78;1.88;;;16.40;56.80;;;;;;6132893;28;20055;-80
2022/09/23 04:25:47;;;;;;;3.40;2.15;;;16.40;56.80;;;;;;6150101;28;20043;-81
2022/09/23 04:28:48;;;;;;;4.45;2.30;;;16.40;56.90;;;;;;6146858;28;20472;-80
2022/09/23 04:31:49;;;;;;;4.20;2.20;;;16.40;56.90;;;;;;6148856;28;20046;-80
2022/09/23 04:34:52;;;;;;;7.47;2.03;;;16.40;57.00;;;;;;6165147;28;20089;-80
2022/09/23 04:37:53;;;;;;;4.20;2.55;;;16.30;57.10;;;;;;6148253;28;20067;-80
2022/09/23 04:40:54;;;;;;;3.25;2.00;;;16.30;57.20;;;;;;6146221;28;20042;-80
2022/09/23 04:43:56;;;;;;;6.70;2.13;;;16.20;57.20;;;;;;6155093;28;20487;-80
2022/09/23 04:46:57;;;;;;;4.15;2.30;;;16.20;57.40;;;;;;6166449;28;20146;-80
2022/09/23 04:49:58;;;;;;;3.85;2.15;;;16.20;57.50;;;;;;6141744;28;20464;-80
2022/09/23 04:53:01;;;;;;;8.95;2.53;;;16.20;57.60;;;;;;6161356;28;20036;-80
2022/09/23 04:56:17;;;;;;;6.80;2.70;;;16.20;57.70;;;;;;6154939;28;20043;-80
2022/09/23 04:59:18;;;;;;;12.05;2.15;;;16.10;57.80;;;;;;6150839;28;20127;-80
2022/09/23 05:02:20;;;;;;;4.22;1.77;;;16.10;57.70;;;;;;6145089;28;20035;-80
2022/09/23 05:05:22;;;;;;;3.53;2.03;;;16.10;57.80;;;;;;6148254;28;20057;-80
2022/09/23 05:08:23;;;;;;;3.15;2.10;;;16.10;57.70;;;;;;6148295;28;20483;-80
2022/09/23 05:11:28;;;;;;;3.65;2.17;;;16.10;57.50;;;;;;6146011;28;20135;-79
2022/09/23 05:14:29;;;;;;;2.88;2.10;;;16.10;57.50;;;;;;6162034;28;20046;-79
2022/09/23 05:17:30;;;;;;;11.60;2.13;;;16.20;57.50;;;;;;6152097;28;20039;-79
2022/09/23 05:20:31;;;;;;;3.60;2.22;;;16.20;57.50;;;;;;6160787;28;20460;-79
2022/09/23 05:23:32;;;;;;;5.25;2.55;;;16.10;57.50;;;;;;6172404;28;20058;-80
2022/09/23 05:26:33;;;;;;;8.98;2.58;;;16.10;57.50;;;;;;6170331;28;20035;-78
2022/09/23 05:29:34;;;;;;;4.03;2.40;;;16.10;57.50;;;;;;6167215;28;20425;-79
2022/09/23 05:32:35;;;;;;;6.97;2.75;;;16.10;57.50;;;;;;6149053;28;20380;-78
2022/09/23 05:35:36;;;;;;;7.88;3.38;;;16.10;57.50;;;;;;6146769;28;20464;-79
2022/09/23 05:38:38;;;;;;;4.93;2.40;;;16.10;57.50;;;;;;6147802;28;20042;-80
2022/09/23 05:41:41;;;;;;;3.40;2.28;;;16.10;57.50;;;;;;6147290;28;20110;-80
2022/09/23 05:44:42;;;;;;;3.63;2.40;;;16.20;57.40;;;;;;6150259;28;20452;-80
2022/09/23 05:47:43;;;;;;;6.72;2.85;;;16.20;57.30;;;;;;6148354;28;20503;-80
2022/09/23 05:50:52;;;;;;;5.65;2.65;;;16.20;57.20;;;;;;6154576;28;20031;-80
2022/09/23 05:53:54;;;;;;;;;;;16.20;57.20;;;;;;6169563;28;20031;-81
2022/09/23 05:56:55;;;;;;;9.40;2.38;;;16.20;57.10;;;;;;6143091;28;19913;-79
2022/09/23 05:59:56;;;;;;;7.60;2.10;;;16.20;57.50;;;;;;6162806;28;20066;-79
2022/09/23 06:02:57;;;;;;;3.65;2.20;;;16.20;56.90;;;;;;6153180;28;20043;-80
2022/09/23 06:05:58;;;;;;;4.70;2.45;;;16.20;56.80;;;;;;6148652;28;20049;-80
2022/09/23 06:09:01;;;;;;;5.35;2.83;;;16.20;56.80;;;;;;6141172;28;20071;-80
2022/09/23 06:12:03;;;;;;;5.53;2.33;;;16.20;56.80;;;;;;6169243;28;20130;-80
2022/09/23 06:15:05;;;;;;;4.63;2.28;;;16.20;56.80;;;;;;6171629;28;20035;-80
2022/09/23 06:18:06;;;;;;;4.95;2.53;;;16.20;56.80;;;;;;6162825;28;20086;-79
2022/09/23 06:21:10;;;;;;;5.72;2.30;;;16.20;56.90;;;;;;6169884;28;20039;-80
2022/09/23 06:24:11;;;;;;;5.53;2.28;;;16.20;56.90;;;;;;6162355;28;20035;-81
2022/09/23 06:27:12;;;;;;;7.70;2.10;;;16.20;56.90;;;;;;6170997;28;20043;-81
2022/09/23 06:30:16;;;;;;;9.15;2.97;;;16.20;56.90;;;;;;6155314;28;20519;-81
2022/09/23 06:33:18;;;;;;;3.72;2.42;;;16.20;56.80;;;;;;6153036;28;20522;-81
2022/09/23 06:36:19;;;;;;;3.40;2.05;;;16.20;56.80;;;;;;6172619;28;20066;-82
2022/09/23 06:39:20;;;;;;;4.18;2.45;;;16.30;56.80;;;;;;6156643;28;20114;-83
2022/09/23 06:42:21;;;;;;;5.20;2.50;;;16.40;56.80;;;;;;6167493;28;20054;-83
2022/09/23 06:45:22;;;;;;;14.27;2.75;;;16.30;56.70;;;;;;6153707;28;20098;-81
2022/09/23 06:48:24;;;;;;;8.95;2.92;;;16.40;56.80;;;;;;6172465;28;20039;-82
2022/09/23 06:51:25;;;;;;;6.32;2.60;;;16.40;56.70;;;;;;6176116;28;20100;-82
2022/09/23 06:54:27;;;;;;;7.35;2.95;;;16.40;56.50;;;;;;6165020;28;20125;-82
2022/09/23 06:57:29;;;;;;;8.70;3.20;;;16.50;56.50;;;;;;6169928;28;20039;-82
2022/09/23 07:00:30;;;;;;;6.72;2.92;;;16.60;56.30;;;;;;6145586;28;20050;-82
2022/09/23 07:03:32;;;;;;;7.05;3.55;;;16.70;56.20;;;;;;6151214;28;20122;-82
2022/09/23 07:06:33;;;;;;;17.50;3.63;;;16.80;56.10;;;;;;6151896;28;20040;-82
2022/09/23 07:09:34;;;;;;;8.52;3.63;;;16.90;55.90;;;;;;6160385;28;20062;-82
2022/09/23 07:12:35;;;;;;;10.57;3.05;;;17.00;55.80;;;;;;6152206;28;20031;-82
2022/09/23 07:15:36;;;;;;;5.65;3.17;;;17.10;55.60;;;;;;6149549;28;20047;-81
2022/09/23 07:18:38;;;;;;;9.40;3.35;;;17.20;55.40;;;;;;6149505;28;20039;-82
2022/09/23 07:21:40;;;;;;;3.95;2.63;;;17.30;55.10;;;;;;6160052;28;20444;-82
2022/09/23 07:24:41;;;;;;;5.20;2.55;;;17.40;54.90;;;;;;6177919;28;20027;-81
2022/09/23 07:27:42;;;;;;;6.38;2.92;;;17.50;54.70;;;;;;6194707;28;20164;-81
2022/09/23 07:30:44;;;;;;;9.50;2.83;;;17.60;54.60;;;;;;6160969;28;20058;-81
2022/09/23 07:34:13;;;;;;;4.78;2.40;;;17.70;54.40;;;;;;6113997;28;20045;-84
2022/09/23 07:37:20;;;;;;;4.68;2.17;;;17.80;54.00;;;;;;6150526;28;20035;-82
2022/09/23 07:40:22;;;;;;;6.95;2.67;;;17.90;53.70;;;;;;6138688;28;20089;-81
2022/09/23 07:43:27;;;;;;;5.75;3.10;;;18.00;53.50;;;;;;6148928;28;20058;-82
2022/09/23 07:46:33;;;;;;;7.40;2.58;;;18.00;53.30;;;;;;6148640;28;20069;-82
2022/09/23 07:49:35;;;;;;;10.82;3.08;;;18.10;53.10;;;;;;6161251;28;20364;-82
2022/09/23 07:52:37;;;;;;;5.43;2.08;;;18.20;52.60;;;;;;6165131;28;20098;-82
2022/09/23 07:55:39;;;;;;;2.92;2.08;;;18.30;52.60;;;;;;6131550;28;20055;-83
2022/09/23 07:58:42;;;;;;;6.25;2.35;;;18.40;52.20;;;;;;6143870;28;20035;-83
2022/09/23 08:01:49;;;;;;;4.10;2.25;;;18.50;52.10;;;;;;6166277;28;20054;-81
2022/09/23 08:04:50;;;;;;;3.83;2.33;;;18.70;51.80;;;;;;6145674;28;20168;-81
2022/09/23 08:07:51;;;;;;;4.90;2.45;;;18.80;51.50;;;;;;6139361;28;20637;-83
2022/09/23 08:11:00;;;;;;;5.43;2.78;;;18.90;51.20;;;;;;6145147;28;20130;-81
2022/09/23 08:14:01;;;;;;;6.35;2.80;;;19.10;51.00;;;;;;6146819;28;20043;-82
2022/09/23 08:17:06;;;;;;;12.85;2.97;;;19.20;50.90;;;;;;6155675;28;20058;-82
2022/09/23 08:20:42;;;;;;;8.02;3.50;;;19.30;50.70;;;;;;6128858;28;20035;-82
2022/09/23 08:23:32;;;;;;;7.43;3.47;;;19.40;50.60;;;;;;6144475;28;20153;-82
2022/09/23 08:26:33;;;;;;;9.02;2.92;;;19.50;50.20;;;;;;6144642;28;20054;-82
2022/09/23 08:29:34;;;;;;;5.18;2.83;;;19.70;50.00;;;;;;6145669;28;20039;-82
2022/09/23 08:32:36;;;;;;;8.07;2.55;;;19.80;49.60;;;;;;6150321;28;20178;-83
2022/09/23 08:35:39;;;;;;;4.25;2.60;;;19.90;49.40;;;;;;6145440;28;20042;-82
2022/09/23 08:38:40;;;;;;;7.47;2.40;;;20.10;49.00;;;;;;6145808;28;20047;-83
2022/09/23 08:41:47;;;;;;;12.75;3.10;;;20.20;48.70;;;;;;6129911;28;20042;-83
2022/09/23 08:44:55;;;;;;;13.43;2.97;;;20.30;48.40;;;;;;6158341;28;20130;-82
2022/09/23 08:48:07;;;;;;;6.47;3.25;;;20.30;48.20;;;;;;6120091;28;20058;-82
2022/09/23 08:51:14;;;;;;;7.13;2.83;;;20.40;48.10;;;;;;6158066;28;20528;-84
2022/09/23 08:54:17;;;;;;;9.48;3.67;;;20.50;47.60;;;;;;6161089;28;20066;-83
2022/09/23 08:57:44;;;;;;;10.32;3.58;;;20.40;47.50;;;;;;6165555;28;20060;-83
2022/09/23 09:01:06;;;;;;;4.38;2.45;;;20.50;47.50;;;;;;6171884;28;20078;-84
2022/09/23 09:04:16;;;;;;;10.55;2.80;;;20.60;46.90;;;;;;6165216;28;20105;-82
2022/09/23 09:07:31;;;;;;;4.72;2.40;;;20.70;46.70;;;;;;6153438;28;20041;-83
2022/09/23 09:10:44;;;;;;;9.32;2.75;;;20.80;46.30;;;;;;6144479;28;20050;-83
2022/09/23 09:13:58;;;;;;;3.70;1.90;;;20.90;46.10;;;;;;6160336;28;20038;-82
2022/09/23 09:17:06;;;;;;;3.30;2.08;;;21.10;45.90;;;;;;6157324;28;20590;-83
2022/09/23 09:20:15;;;;;;;9.13;3.55;;;21.30;45.60;;;;;;6144587;28;20457;-82
2022/09/23 09:23:42;;;;;;;4.50;2.28;;;21.50;45.50;;;;;;6126079;28;20118;-81
2022/09/23 09:26:44;;;;;;;3.80;1.90;;;21.70;45.10;;;;;;6154995;28;20118;-83
2022/09/23 09:29:50;;;;;;;14.05;7.25;;;21.80;44.80;;;;;;6166041;28;20488;-83
2022/09/23 09:33:09;;;;;;;8.38;4.18;;;22.00;44.60;;;;;;6154510;28;20035;-83
2022/09/23 09:36:25;;;;;;;5.90;2.35;;;22.10;44.40;;;;;;6133925;28;20046;-82
2022/09/23 09:39:26;;;;;;;4.93;2.00;;;22.20;44.20;;;;;;6138271;28;20491;-83
2022/09/23 09:42:43;;;;;;;4.78;2.10;;;22.40;44.10;;;;;;6184262;28;20122;-82
2022/09/23 09:46:03;;;;;;;9.05;3.72;;;22.50;43.60;;;;;;6137840;28;20050;-82
2022/09/23 09:49:11;;;;;;;4.57;2.60;;;22.40;43.20;;;;;;6153132;28;20042;-83
2022/09/23 09:52:22;;;;;;;8.63;1.98;;;22.40;43.30;;;;;;6165543;28;20055;-83
2022/09/23 09:55:26;;;;;;;4.60;2.08;;;22.40;43.10;;;;;;6149772;28;20057;-82
2022/09/23 09:58:33;;;;;;;2.88;1.98;;;22.40;43.10;;;;;;6126791;28;20042;-82
2022/09/23 10:01:34;;;;;;;6.32;2.95;;;22.40;43.20;;;;;;6126043;28;20122;-82
2022/09/23 10:04:35;;;;;;;11.30;4.07;;;22.50;43.10;;;;;;6162536;28;20034;-84
2022/09/23 10:07:37;;;;;;;16.30;5.75;;;22.60;43.00;;;;;;6161174;28;20481;-83
2022/09/23 10:10:46;;;;;;;4.65;2.90;;;22.70;42.90;;;;;;6181612;28;20074;-85
2022/09/23 10:14:04;;;;;;;11.10;4.60;;;22.90;42.80;;;;;;6162705;28;20038;-83
2022/09/23 10:17:07;;;;;;;6.95;2.28;;;23.00;42.40;;;;;;6153264;28;20103;-83
2022/09/23 10:20:13;;;;;;;6.03;2.25;;;23.20;41.90;;;;;;6163994;28;20475;-83
2022/09/23 10:23:21;;;;;;;7.10;2.72;;;23.30;41.50;;;;;;6152419;28;20046;-83
2022/09/23 10:26:31;;;;;;;5.93;2.38;;;23.40;41.20;;;;;;6152986;28;20035;-84
2022/09/23 10:29:49;;;;;;;8.30;1.95;;;23.50;41.60;;;;;;6162491;28;20081;-83
2022/09/23 10:32:53;;;;;;;6.72;2.10;;;23.70;40.80;;;;;;6163632;28;20030;-83
2022/09/23 10:35:56;;;;;;;7.30;2.20;;;23.80;40.60;;;;;;6139001;28;20043;-83
2022/09/23 10:46:46;;;;;;;4.63;2.40;;;24.40;39.80;;;;;;6147176;28;20062;-84
2022/09/23 10:50:14;;;;;;;7.10;1.95;;;24.70;39.40;;;;;;6146408;28;20050;-83
2022/09/23 10:53:48;;;;;;;5.75;1.63;;;24.90;39.00;;;;;;6148490;28;20101;-82
2022/09/23 10:56:53;;;;;;;2.03;1.48;;;25.30;38.50;;;;;;6144926;28;20066;-84
2022/09/23 11:00:09;;;;;;;3.95;1.90;;;25.70;38.10;;;;;;6144791;28;20027;-85
2022/09/23 11:03:23;;;;;;;4.20;1.42;;;25.90;37.60;;;;;;6140337;28;20058;-84
2022/09/23 11:06:44;;;;;;;1.65;1.10;;;26.30;37.30;;;;;;6144615;28;20051;-84
2022/09/23 11:10:21;;;;;;;6.45;1.55;;;26.60;36.80;;;;;;6138959;28;20412;-83
2022/09/23 11:13:44;;;;;;;2.55;2.05;;;26.80;36.10;;;;;;6144192;28;20349;-83
2022/09/23 11:17:18;;;;;;;6.88;1.67;;;27.00;35.90;;;;;;6141211;28;20138;-82
2022/09/23 11:20:38;;;;;;;2.67;1.63;;;27.20;35.70;;;;;;6145893;28;20433;-83
2022/09/23 11:23:51;;;;;;;6.47;1.80;;;27.50;35.00;;;;;;6149366;28;20039;-85
2022/09/23 11:27:09;;;;;;;4.60;1.70;;;27.70;34.60;;;;;;6138503;28;20066;-83
2022/09/23 11:30:15;;;;;;;3.55;1.80;;;27.80;34.30;;;;;;6129612;28;20044;-83
2022/09/23 11:33:27;;;;;;;6.43;2.47;;;28.10;34.00;;;;;;6138063;28;20043;-83
2022/09/23 11:36:36;;;;;;;8.48;1.80;;;28.30;33.60;;;;;;6152072;28;20409;-83
2022/09/23 11:39:47;;;;;;;5.90;1.60;;;28.50;33.30;;;;;;6147572;28;20043;-83
2022/09/23 11:43:13;;;;;;;6.03;1.67;;;28.80;32.90;;;;;;6139548;28;20034;-82
2022/09/23 11:46:37;;;;;;;5.13;2.08;;;29.10;32.40;;;;;;6150449;28;20102;-84
2022/09/23 11:49:50;;;;;;;2.65;1.65;;;29.40;31.90;;;;;;6144740;28;20397;-82
2022/09/23 11:53:06;;;;;;;3.90;1.60;;;29.80;31.50;;;;;;6155493;28;20039;-84
2022/09/23 11:56:16;;;;;;;3.78;1.50;;;30.00;31.00;;;;;;6148870;28;20050;-84
2022/09/23 11:59:41;;;;;;;11.18;2.00;;;30.10;30.50;;;;;;6161723;28;20488;-83
2022/09/23 12:03:04;;;;;;;5.47;1.60;;;29.90;30.50;;;;;;6165879;28;20031;-84
2022/09/23 12:06:45;;;;;;;3.17;1.52;;;30.00;30.60;;;;;;6164723;28;20409;-85
2022/09/23 12:10:04;;;;;;;4.40;1.45;;;30.20;30.40;;;;;;6143162;28;20129;-83
2022/09/23 12:13:29;;;;;;;3.55;1.58;;;30.60;29.80;;;;;;6117024;28;20058;-82
2022/09/23 12:16:30;;;;;;;6.25;1.83;;;30.40;29.80;;;;;;6145489;28;20038;-83
2022/09/23 12:20:00;;;;;;;3.45;1.35;;;30.40;29.80;;;;;;6127226;28;20118;-83
2022/09/23 12:23:38;;;;;;;7.63;1.55;;;30.50;30.00;;;;;;6158684;28;20045;-81
2022/09/23 12:26:43;;;;;;;5.10;1.50;;;30.90;29.60;;;;;;6153630;28;20384;-82
2022/09/23 12:29:44;;;;;;;2.33;1.40;;;31.40;29.10;;;;;;6154607;28;20039;-82
2022/09/23 12:32:46;;;;;;;5.18;1.98;;;31.60;28.70;;;;;;6166541;28;20035;-84
2022/09/23 12:35:48;;;;;;;2.63;1.30;;;31.50;28.80;;;;;;6171936;28;20042;-83
2022/09/23 12:39:02;;;;;;;7.18;1.60;;;31.40;28.70;;;;;;6158822;28;20042;-82
2022/09/23 12:42:16;;;;;;;2.78;1.27;;;31.00;28.90;;;;;;6156341;28;20090;-82
2022/09/23 12:45:36;;;;;;;2.95;1.70;;;31.10;29.30;;;;;;6161786;28;20050;-83
2022/09/23 12:48:59;;;;;;;2.30;1.63;;;31.10;29.00;;;;;;6152200;28;20125;-83
2022/09/23 12:52:26;;;;;;;6.93;1.50;;;31.10;29.30;;;;;;6158050;28;20042;-85
2022/09/23 12:55:33;;;;;;;3.40;1.33;;;30.60;29.90;;;;;;6163326;28;20047;-83
2022/09/23 12:58:41;;;;;;;5.10;1.55;;;30.30;30.30;;;;;;6159049;28;20098;-83
2022/09/23 13:01:43;;;;;;;7.57;1.65;;;30.10;30.70;;;;;;6161913;28;20385;-84
2022/09/23 13:08:30;;;;;;;4.15;1.60;;;29.80;31.60;;;;;;6157941;28;20111;-85
2022/09/23 13:11:32;;;;;;;5.80;1.73;;;30.30;31.50;;;;;;6148983;28;20049;-84
2022/09/23 13:14:36;;;;;;;5.45;1.30;;;30.40;31.10;;;;;;6163675;28;20377;-82
2022/09/23 13:17:39;;;;;;;10.05;1.40;;;30.50;31.00;;;;;;6165452;28;20030;-84
2022/09/23 13:20:42;;;;;;;1.83;1.40;;;31.10;30.40;;;;;;6173452;28;20376;-84
2022/09/23 13:24:13;;;;;;;9.20;1.42;;;31.30;30.10;;;;;;6163434;28;20429;-83
2022/09/23 13:27:25;;;;;;;3.83;1.40;;;31.10;30.40;;;;;;6129855;28;20117;-81
2022/09/23 13:30:26;;;;;;;4.90;1.48;;;30.80;30.90;;;;;;6158236;28;20031;-83
2022/09/23 13:33:37;;;;;;;2.53;1.60;;;30.40;31.50;;;;;;6162992;28;20452;-82
2022/09/23 13:36:47;;;;;;;3.20;1.30;;;30.00;32.20;;;;;;6173356;28;20053;-83
2022/09/23 13:39:50;;;;;;;8.15;1.58;;;29.60;32.80;;;;;;6136143;28;20035;-84
2022/09/23 13:43:04;;;;;;;2.53;1.48;;;29.40;33.20;;;;;;6152554;28;20039;-84
2022/09/23 13:46:25;;;;;;;11.45;1.35;;;29.20;33.70;;;;;;6144365;28;20046;-83
2022/09/23 13:49:31;;;;;;;10.18;1.30;;;29.00;33.90;;;;;;6118260;28;20046;-83
2022/09/23 13:52:32;;;;;;;1.90;1.30;;;28.90;34.90;;;;;;6170037;28;20042;-83
2022/09/23 13:55:38;;;;;;;6.13;1.80;;;28.90;34.50;;;;;;6144805;28;20039;-82
2022/09/23 13:58:40;;;;;;;8.05;1.25;;;28.90;34.50;;;;;;6150886;28;20035;-83
2022/09/23 14:01:41;;;;;;;2.85;1.33;;;28.70;34.50;;;;;;6131369;28;20039;-83
2022/09/23 14:04:43;;;;;;;4.32;1.52;;;28.60;34.70;;;;;;6149815;28;20032;-82
2022/09/23 14:07:44;;;;;;;7.32;1.50;;;28.50;35.00;;;;;;6157710;28;20035;-82
2022/09/23 14:10:47;;;;;;;1.50;1.40;;;28.30;35.40;;;;;;6156082;28;20513;-83
2022/09/23 14:13:53;;;;;;;3.05;1.70;;;28.10;35.60;;;;;;6176555;28;20031;-82
2022/09/23 14:16:54;;;;;;;4.38;1.52;;;27.90;36.10;;;;;;6156967;28;20051;-82
2022/09/23 14:19:56;;;;;;;2.45;1.38;;;27.80;36.20;;;;;;6147124;28;20047;-82
2022/09/23 14:23:10;;;;;;;3.30;1.70;;;27.70;36.50;;;;;;6145209;28;20508;-82
2022/09/23 14:26:11;;;;;;;2.67;1.40;;;27.50;36.80;;;;;;6151665;28;20042;-82
2022/09/23 14:29:24;;;;;;;2.55;1.40;;;27.50;37.00;;;;;;6146707;28;20035;-83
2022/09/23 14:32:27;;;;;;;4.07;1.38;;;27.40;37.10;;;;;;6145475;28;20034;-82
2022/09/23 14:35:43;;;;;;;7.70;1.77;;;27.40;37.30;;;;;;6141908;28;20043;-83
2022/09/23 14:38:50;;;;;;;4.95;1.40;;;27.40;37.30;;;;;;6148277;28;20035;-82
2022/09/23 14:41:52;;;;;;;7.38;1.38;;;27.50;37.30;;;;;;6168068;28;20062;-82
2022/09/23 14:44:55;;;;;;;6.15;1.50;;;27.50;37.40;;;;;;6156196;28;20045;-83
2022/09/23 14:48:03;;;;;;;3.53;1.13;;;27.50;37.30;;;;;;6155646;28;20138;-83
2022/09/23 14:51:07;;;;;;;4.65;1.48;;;27.50;37.10;;;;;;6148116;28;20035;-83
2022/09/23 14:54:30;;;;;;;2.10;1.42;;;27.60;36.80;;;;;;6166988;28;20058;-83
2022/09/23 14:57:31;;;;;;;5.75;1.92;;;27.70;36.70;;;;;;6158546;28;20468;-82
2022/09/23 15:00:32;;;;;;;6.22;1.40;;;27.70;36.50;;;;;;6144803;28;20484;-83
2022/09/23 15:03:33;;;;;;;7.03;1.65;;;27.70;36.60;;;;;;6167247;28;20035;-84
2022/09/23 15:06:40;;;;;;;2.70;1.50;;;27.70;36.80;;;;;;6170377;28;20038;-82
2022/09/23 15:09:43;;;;;;;4.60;1.70;;;27.60;36.80;;;;;;6151933;28;20043;-83
2022/09/23 15:12:49;;;;;;;5.90;1.55;;;27.50;36.80;;;;;;6150636;28;20409;-82
2022/09/23 15:15:54;;;;;;;2.78;1.58;;;27.50;37.00;;;;;;6180391;28;20034;-83
2022/09/23 15:18:58;;;;;;;4.68;1.52;;;27.40;37.00;;;;;;6154802;28;20381;-82
2022/09/23 15:22:00;;;;;;;4.65;1.45;;;27.40;37.00;;;;;;6156371;28;20129;-82
2022/09/23 15:25:34;;;;;;;3.78;1.50;;;27.40;36.80;;;;;;6139426;28;20047;-83
2022/09/23 15:28:35;;;;;;;11.32;1.73;;;27.40;36.70;;;;;;6143234;28;20035;-81
2022/09/23 15:31:36;;;;;;;4.00;1.58;;;27.40;36.70;;;;;;6148726;28;20046;-81
2022/09/23 15:34:37;;;;;;;6.15;2.25;;;27.30;37.20;;;;;;6164314;28;20097;-81
2022/09/23 15:37:38;;;;;;;6.05;1.52;;;27.20;37.40;;;;;;6142143;28;20043;-80
2022/09/23 15:40:40;;;;;;;4.68;1.73;;;27.10;37.80;;;;;;6159363;28;20035;-82
2022/09/23 15:43:42;;;;;;;6.60;1.55;;;27.10;38.00;;;;;;6171215;28;20116;-81
2022/09/23 15:46:49;;;;;;;3.22;1.65;;;27.10;38.20;;;;;;6158772;28;20353;-81
2022/09/23 15:49:50;;;;;;;7.18;1.42;;;27.00;38.10;;;;;;6134252;28;20046;-81
2022/09/23 15:52:52;;;;;;;4.82;1.45;;;27.00;38.20;;;;;;6167323;28;20049;-82
2022/09/23 15:55:53;;;;;;;10.52;1.63;;;26.90;38.40;;;;;;6167079;28;20081;-82
2022/09/23 15:58:54;;;;;;;4.70;1.90;;;26.80;38.50;;;;;;6161147;28;20038;-80
2022/09/23 16:02:00;;;;;;;1.95;1.30;;;26.70;38.60;;;;;;6156816;28;20066;-81
2022/09/23 16:05:01;;;;;;;2.10;1.42;;;26.70;38.80;;;;;;6165150;28;20051;-81
2022/09/23 16:08:08;;;;;;;4.47;1.67;;;26.60;38.70;;;;;;6135187;28;20101;-82
2022/09/23 16:11:19;;;;;;;4.10;1.88;;;26.60;38.60;;;;;;6152131;28;20468;-81
2022/09/23 16:14:20;;;;;;;4.28;1.52;;;26.50;38.30;;;;;;6164088;28;20038;-81
2022/09/23 16:17:21;;;;;;;3.88;1.67;;;26.40;38.20;;;;;;6158921;28;20050;-83
2022/09/23 16:20:23;;;;;;;4.03;1.40;;;26.40;38.50;;;;;;6151559;28;20045;-81
2022/09/23 16:23:34;;;;;;;3.05;1.58;;;26.30;38.70;;;;;;6157237;28;20054;-83
2022/09/23 16:26:37;;;;;;;3.38;1.50;;;26.20;38.90;;;;;;6144677;28;20054;-81
2022/09/23 16:29:38;;;;;;;2.42;1.45;;;26.10;39.20;;;;;;6145694;28;20086;-82